sensor_id;sensor_type;location;lat;lon;timestamp;temperature;humidity
60234;DHT22;49514;43.538;-5.708;2023-05-08T00:01:23;16.70;99.90
60234;DHT22;49514;43.538;-5.708;2023-05-08T00:03:51;16.70;99.90
60234;DHT22;49514;43.538;-5.708;2023-05-08T00:06:18;16.60;99.90
60234;DHT22;49514;43.538;-5.708;2023-05-08T00:08:44;16.60;99.90
60234;DHT22;49514;43.538;-5.708;2023-05-08T00:11:11;16.60;99.90
60234;DHT22;49514;43.538;-5.708;2023-05-08T00:13:38;16.60;99.90
60234;DHT22;49514;43.538;-5.708;2023-05-08T00:16:07;16.50;99.90
60234;DHT22;49514;43.538;-5.708;2023-05-08T00:18:38;16.50;99.90
60234;DHT22;49514;43.538;-5.708;2023-05-08T00:21:05;16.40;99.90
60234;DHT22;49514;43.538;-5.708;2023-05-08T00:23:32;16.30;99.90
60234;DHT22;49514;43.538;-5.708;2023-05-08T00:25:59;16.30;99.90
60234;DHT22;49514;43.538;-5.708;2023-05-08T00:28:26;16.30;99.90
60234;DHT22;49514;43.538;-5.708;2023-05-08T00:30:52;16.30;99.90
60234;DHT22;49514;43.538;-5.708;2023-05-08T00:33:19;16.20;99.90
60234;DHT22;49514;43.538;-5.708;2023-05-08T00:35:46;16.20;99.90
60234;DHT22;49514;43.538;-5.708;2023-05-08T00:38:12;16.10;99.90
60234;DHT22;49514;43.538;-5.708;2023-05-08T00:40:39;16.10;99.90
60234;DHT22;49514;43.538;-5.708;2023-05-08T00:43:06;16.10;99.90
60234;DHT22;49514;43.538;-5.708;2023-05-08T00:45:36;16.10;99.90
60234;DHT22;49514;43.538;-5.708;2023-05-08T00:48:06;16.10;99.90
60234;DHT22;49514;43.538;-5.708;2023-05-08T00:50:33;16.10;99.90
60234;DHT22;49514;43.538;-5.708;2023-05-08T00:53:02;16.10;99.90
60234;DHT22;49514;43.538;-5.708;2023-05-08T00:55:31;16.10;99.90
60234;DHT22;49514;43.538;-5.708;2023-05-08T00:57:58;16.10;99.90
60234;DHT22;49514;43.538;-5.708;2023-05-08T01:00:25;16.00;99.90
60234;DHT22;49514;43.538;-5.708;2023-05-08T01:02:52;16.00;99.90
60234;DHT22;49514;43.538;-5.708;2023-05-08T01:05:19;15.90;99.90
60234;DHT22;49514;43.538;-5.708;2023-05-08T01:07:46;15.80;99.90
60234;DHT22;49514;43.538;-5.708;2023-05-08T01:10:12;15.90;99.90
60234;DHT22;49514;43.538;-5.708;2023-05-08T01:13:02;15.80;99.90
60234;DHT22;49514;43.538;-5.708;2023-05-08T01:15:42;15.70;99.90
60234;DHT22;49514;43.538;-5.708;2023-05-08T01:18:22;15.70;99.90
60234;DHT22;49514;43.538;-5.708;2023-05-08T01:21:02;15.70;99.90
60234;DHT22;49514;43.538;-5.708;2023-05-08T01:34:48;15.50;99.90
60234;DHT22;49514;43.538;-5.708;2023-05-08T01:37:28;15.60;99.90
60234;DHT22;49514;43.538;-5.708;2023-05-08T01:40:07;15.60;99.90
60234;DHT22;49514;43.538;-5.708;2023-05-08T01:42:45;15.50;99.90
60234;DHT22;49514;43.538;-5.708;2023-05-08T01:47:49;15.40;99.90
60234;DHT22;49514;43.538;-5.708;2023-05-08T01:50:24;15.40;99.90
60234;DHT22;49514;43.538;-5.708;2023-05-08T01:52:57;15.40;99.90
60234;DHT22;49514;43.538;-5.708;2023-05-08T01:55:32;15.40;99.90
60234;DHT22;49514;43.538;-5.708;2023-05-08T01:58:01;15.30;99.90
60234;DHT22;49514;43.538;-5.708;2023-05-08T02:00:28;15.30;99.90
60234;DHT22;49514;43.538;-5.708;2023-05-08T02:02:58;15.30;99.90
60234;DHT22;49514;43.538;-5.708;2023-05-08T02:05:27;15.30;99.90
60234;DHT22;49514;43.538;-5.708;2023-05-08T02:07:54;15.30;99.90
60234;DHT22;49514;43.538;-5.708;2023-05-08T02:10:22;15.30;99.90
60234;DHT22;49514;43.538;-5.708;2023-05-08T02:12:51;15.30;99.90
60234;DHT22;49514;43.538;-5.708;2023-05-08T02:15:20;15.40;99.90
60234;DHT22;49514;43.538;-5.708;2023-05-08T02:17:48;15.40;99.90
60234;DHT22;49514;43.538;-5.708;2023-05-08T02:20:16;15.30;99.90
60234;DHT22;49514;43.538;-5.708;2023-05-08T02:22:44;15.40;99.90
60234;DHT22;49514;43.538;-5.708;2023-05-08T02:27:45;15.20;99.90
60234;DHT22;49514;43.538;-5.708;2023-05-08T02:30:14;15.20;99.90
60234;DHT22;49514;43.538;-5.708;2023-05-08T02:32:43;15.30;99.90
60234;DHT22;49514;43.538;-5.708;2023-05-08T02:35:15;15.20;99.90
60234;DHT22;49514;43.538;-5.708;2023-05-08T02:53:05;15.20;99.90
60234;DHT22;49514;43.538;-5.708;2023-05-08T02:55:52;15.10;99.90
60234;DHT22;49514;43.538;-5.708;2023-05-08T02:58:30;15.00;99.90
60234;DHT22;49514;43.538;-5.708;2023-05-08T03:01:04;15.00;99.90
60234;DHT22;49514;43.538;-5.708;2023-05-08T03:03:42;15.00;99.90
60234;DHT22;49514;43.538;-5.708;2023-05-08T03:06:17;15.00;99.90
60234;DHT22;49514;43.538;-5.708;2023-05-08T03:08:45;15.00;99.90
60234;DHT22;49514;43.538;-5.708;2023-05-08T03:11:16;14.90;99.90
60234;DHT22;49514;43.538;-5.708;2023-05-08T03:13:46;14.90;99.90
60234;DHT22;49514;43.538;-5.708;2023-05-08T03:16:20;14.80;99.90
60234;DHT22;49514;43.538;-5.708;2023-05-08T03:18:54;14.80;99.90
60234;DHT22;49514;43.538;-5.708;2023-05-08T03:21:23;14.70;99.90
60234;DHT22;49514;43.538;-5.708;2023-05-08T03:23:53;14.70;99.90
60234;DHT22;49514;43.538;-5.708;2023-05-08T03:26:20;14.60;99.90
60234;DHT22;49514;43.538;-5.708;2023-05-08T03:28:49;14.60;99.90
60234;DHT22;49514;43.538;-5.708;2023-05-08T03:31:18;14.50;99.90
60234;DHT22;49514;43.538;-5.708;2023-05-08T03:33:52;14.50;99.90
60234;DHT22;49514;43.538;-5.708;2023-05-08T03:36:19;14.50;99.90
60234;DHT22;49514;43.538;-5.708;2023-05-08T03:38:46;14.40;99.90
60234;DHT22;49514;43.538;-5.708;2023-05-08T03:41:13;14.50;99.90
60234;DHT22;49514;43.538;-5.708;2023-05-08T03:43:40;14.50;99.90
60234;DHT22;49514;43.538;-5.708;2023-05-08T03:46:07;14.40;99.90
60234;DHT22;49514;43.538;-5.708;2023-05-08T03:48:35;14.40;99.90
60234;DHT22;49514;43.538;-5.708;2023-05-08T03:51:04;14.40;99.90
60234;DHT22;49514;43.538;-5.708;2023-05-08T03:53:32;14.40;99.90
60234;DHT22;49514;43.538;-5.708;2023-05-08T03:56:01;14.40;99.90
60234;DHT22;49514;43.538;-5.708;2023-05-08T04:01:39;14.30;99.90
60234;DHT22;49514;43.538;-5.708;2023-05-08T04:04:15;14.40;99.90
60234;DHT22;49514;43.538;-5.708;2023-05-08T04:06:58;14.40;99.90
60234;DHT22;49514;43.538;-5.708;2023-05-08T04:09:59;14.40;99.90
60234;DHT22;49514;43.538;-5.708;2023-05-08T04:15:08;14.40;99.90
60234;DHT22;49514;43.538;-5.708;2023-05-08T04:18:08;14.40;99.90
60234;DHT22;49514;43.538;-5.708;2023-05-08T04:20:34;14.40;99.90
60234;DHT22;49514;43.538;-5.708;2023-05-08T04:23:01;14.30;99.90
60234;DHT22;49514;43.538;-5.708;2023-05-08T04:25:29;14.30;99.90
60234;DHT22;49514;43.538;-5.708;2023-05-08T04:27:58;14.30;99.90
60234;DHT22;49514;43.538;-5.708;2023-05-08T04:30:27;14.20;99.90
60234;DHT22;49514;43.538;-5.708;2023-05-08T04:32:55;14.20;99.90
60234;DHT22;49514;43.538;-5.708;2023-05-08T04:35:22;14.10;99.90
60234;DHT22;49514;43.538;-5.708;2023-05-08T04:37:49;14.10;99.90
60234;DHT22;49514;43.538;-5.708;2023-05-08T04:40:16;14.10;99.90
60234;DHT22;49514;43.538;-5.708;2023-05-08T04:42:44;14.00;99.90
60234;DHT22;49514;43.538;-5.708;2023-05-08T04:45:13;14.00;99.90
60234;DHT22;49514;43.538;-5.708;2023-05-08T04:47:40;14.00;99.90
60234;DHT22;49514;43.538;-5.708;2023-05-08T04:50:07;14.00;99.90
60234;DHT22;49514;43.538;-5.708;2023-05-08T04:52:35;14.00;99.90
60234;DHT22;49514;43.538;-5.708;2023-05-08T04:55:01;14.00;99.90
60234;DHT22;49514;43.538;-5.708;2023-05-08T04:57:30;14.00;99.90
60234;DHT22;49514;43.538;-5.708;2023-05-08T04:59:56;14.00;99.90
60234;DHT22;49514;43.538;-5.708;2023-05-08T05:02:26;14.00;99.90
60234;DHT22;49514;43.538;-5.708;2023-05-08T05:04:53;14.00;99.90
60234;DHT22;49514;43.538;-5.708;2023-05-08T05:07:24;14.10;99.90
60234;DHT22;49514;43.538;-5.708;2023-05-08T05:09:51;14.10;99.90
60234;DHT22;49514;43.538;-5.708;2023-05-08T05:12:18;14.10;99.90
60234;DHT22;49514;43.538;-5.708;2023-05-08T05:14:45;14.10;99.90
60234;DHT22;49514;43.538;-5.708;2023-05-08T05:17:11;14.10;99.90
60234;DHT22;49514;43.538;-5.708;2023-05-08T05:19:38;14.10;99.90
60234;DHT22;49514;43.538;-5.708;2023-05-08T05:22:05;14.10;99.90
60234;DHT22;49514;43.538;-5.708;2023-05-08T05:24:34;14.10;99.90
60234;DHT22;49514;43.538;-5.708;2023-05-08T05:27:04;14.10;99.90
60234;DHT22;49514;43.538;-5.708;2023-05-08T05:29:31;14.20;99.90
60234;DHT22;49514;43.538;-5.708;2023-05-08T05:31:58;14.20;99.90
60234;DHT22;49514;43.538;-5.708;2023-05-08T05:34:25;14.30;99.90
60234;DHT22;49514;43.538;-5.708;2023-05-08T05:36:52;14.20;99.90
60234;DHT22;49514;43.538;-5.708;2023-05-08T05:39:19;14.20;99.90
60234;DHT22;49514;43.538;-5.708;2023-05-08T05:41:45;14.30;99.90
60234;DHT22;49514;43.538;-5.708;2023-05-08T05:44:13;14.40;99.90
60234;DHT22;49514;43.538;-5.708;2023-05-08T05:46:39;14.40;99.90
60234;DHT22;49514;43.538;-5.708;2023-05-08T05:49:06;14.40;99.90
60234;DHT22;49514;43.538;-5.708;2023-05-08T05:51:33;14.40;99.90
60234;DHT22;49514;43.538;-5.708;2023-05-08T05:54:00;14.50;99.90
60234;DHT22;49514;43.538;-5.708;2023-05-08T05:56:26;14.50;99.90
60234;DHT22;49514;43.538;-5.708;2023-05-08T05:58:53;14.70;99.90
60234;DHT22;49514;43.538;-5.708;2023-05-08T06:01:20;14.70;99.90
60234;DHT22;49514;43.538;-5.708;2023-05-08T06:03:50;14.70;99.90
60234;DHT22;49514;43.538;-5.708;2023-05-08T06:06:17;14.70;99.90
60234;DHT22;49514;43.538;-5.708;2023-05-08T06:08:43;14.80;99.90
60234;DHT22;49514;43.538;-5.708;2023-05-08T06:11:11;14.80;99.90
60234;DHT22;49514;43.538;-5.708;2023-05-08T06:13:40;14.80;99.90
60234;DHT22;49514;43.538;-5.708;2023-05-08T06:16:08;14.90;99.90
60234;DHT22;49514;43.538;-5.708;2023-05-08T06:18:35;15.00;99.90
60234;DHT22;49514;43.538;-5.708;2023-05-08T06:21:02;14.90;99.90
60234;DHT22;49514;43.538;-5.708;2023-05-08T06:23:28;15.10;99.90
60234;DHT22;49514;43.538;-5.708;2023-05-08T06:25:55;15.10;99.90
60234;DHT22;49514;43.538;-5.708;2023-05-08T06:28:22;15.30;99.90
60234;DHT22;49514;43.538;-5.708;2023-05-08T06:30:51;15.40;99.90
60234;DHT22;49514;43.538;-5.708;2023-05-08T06:33:19;15.40;99.90
60234;DHT22;49514;43.538;-5.708;2023-05-08T06:35:46;15.50;99.90
60234;DHT22;49514;43.538;-5.708;2023-05-08T06:38:14;15.50;99.90
60234;DHT22;49514;43.538;-5.708;2023-05-08T06:40:42;15.60;99.90
60234;DHT22;49514;43.538;-5.708;2023-05-08T06:43:10;15.70;99.90
60234;DHT22;49514;43.538;-5.708;2023-05-08T06:45:37;15.40;99.90
60234;DHT22;49514;43.538;-5.708;2023-05-08T06:48:05;15.80;99.90
60234;DHT22;49514;43.538;-5.708;2023-05-08T06:50:31;15.80;99.90
60234;DHT22;49514;43.538;-5.708;2023-05-08T06:52:58;15.80;99.90
60234;DHT22;49514;43.538;-5.708;2023-05-08T06:55:25;15.80;99.90
60234;DHT22;49514;43.538;-5.708;2023-05-08T06:57:51;15.90;99.90
60234;DHT22;49514;43.538;-5.708;2023-05-08T07:00:18;15.90;99.90
60234;DHT22;49514;43.538;-5.708;2023-05-08T07:02:45;16.10;99.90
60234;DHT22;49514;43.538;-5.708;2023-05-08T07:05:12;16.20;99.90
60234;DHT22;49514;43.538;-5.708;2023-05-08T07:07:38;16.20;99.90
60234;DHT22;49514;43.538;-5.708;2023-05-08T07:10:08;16.30;99.90
60234;DHT22;49514;43.538;-5.708;2023-05-08T07:12:35;16.40;99.90
60234;DHT22;49514;43.538;-5.708;2023-05-08T07:15:02;16.40;99.90
60234;DHT22;49514;43.538;-5.708;2023-05-08T07:17:29;16.60;99.90
60234;DHT22;49514;43.538;-5.708;2023-05-08T07:19:57;16.60;99.90
60234;DHT22;49514;43.538;-5.708;2023-05-08T07:22:23;16.80;99.90
60234;DHT22;49514;43.538;-5.708;2023-05-08T07:24:50;16.80;99.90
60234;DHT22;49514;43.538;-5.708;2023-05-08T07:27:17;16.80;99.90
60234;DHT22;49514;43.538;-5.708;2023-05-08T07:29:43;16.80;99.90
60234;DHT22;49514;43.538;-5.708;2023-05-08T07:32:10;16.80;99.90
60234;DHT22;49514;43.538;-5.708;2023-05-08T07:34:37;16.80;99.90
60234;DHT22;49514;43.538;-5.708;2023-05-08T07:37:03;16.80;99.90
60234;DHT22;49514;43.538;-5.708;2023-05-08T07:39:30;16.70;99.90
60234;DHT22;49514;43.538;-5.708;2023-05-08T07:41:57;16.70;99.90
60234;DHT22;49514;43.538;-5.708;2023-05-08T07:44:24;16.70;99.90
60234;DHT22;49514;43.538;-5.708;2023-05-08T07:46:50;16.70;99.90
60234;DHT22;49514;43.538;-5.708;2023-05-08T07:49:17;16.80;99.90
60234;DHT22;49514;43.538;-5.708;2023-05-08T07:51:44;16.80;99.90
60234;DHT22;49514;43.538;-5.708;2023-05-08T07:54:11;16.80;99.90
60234;DHT22;49514;43.538;-5.708;2023-05-08T07:56:37;16.80;99.90
60234;DHT22;49514;43.538;-5.708;2023-05-08T07:59:04;16.80;99.90
60234;DHT22;49514;43.538;-5.708;2023-05-08T08:06:23;16.90;99.90
60234;DHT22;49514;43.538;-5.708;2023-05-08T08:18:41;16.90;99.90
60234;DHT22;49514;43.538;-5.708;2023-05-08T09:10:41;17.70;99.90
60234;DHT22;49514;43.538;-5.708;2023-05-08T09:13:09;17.90;99.90
60234;DHT22;49514;43.538;-5.708;2023-05-08T09:15:35;17.90;99.90
60234;DHT22;49514;43.538;-5.708;2023-05-08T09:18:02;18.00;99.90
60234;DHT22;49514;43.538;-5.708;2023-05-08T09:20:28;18.00;99.90
60234;DHT22;49514;43.538;-5.708;2023-05-08T09:22:55;18.20;99.90
60234;DHT22;49514;43.538;-5.708;2023-05-08T11:18:16;18.90;99.90
60234;DHT22;49514;43.538;-5.708;2023-05-08T11:38:21;19.10;99.90
60234;DHT22;49514;43.538;-5.708;2023-05-08T11:40:55;19.20;99.90
60234;DHT22;49514;43.538;-5.708;2023-05-08T11:48:29;19.30;99.90
60234;DHT22;49514;43.538;-5.708;2023-05-08T11:50:56;19.50;99.90
60234;DHT22;49514;43.538;-5.708;2023-05-08T11:53:23;19.50;99.90
60234;DHT22;49514;43.538;-5.708;2023-05-08T11:55:53;19.70;99.90
60234;DHT22;49514;43.538;-5.708;2023-05-08T11:58:20;20.00;99.90
60234;DHT22;49514;43.538;-5.708;2023-05-08T12:00:47;20.10;99.90
60234;DHT22;49514;43.538;-5.708;2023-05-08T12:03:14;20.20;99.90
60234;DHT22;49514;43.538;-5.708;2023-05-08T12:05:41;20.40;99.90
60234;DHT22;49514;43.538;-5.708;2023-05-08T12:08:08;20.60;99.90
60234;DHT22;49514;43.538;-5.708;2023-05-08T12:15:49;20.90;99.90
60234;DHT22;49514;43.538;-5.708;2023-05-08T12:18:16;20.90;99.90
60234;DHT22;49514;43.538;-5.708;2023-05-08T12:20:43;21.00;99.90
60234;DHT22;49514;43.538;-5.708;2023-05-08T12:23:09;21.20;99.90
60234;DHT22;49514;43.538;-5.708;2023-05-08T12:38:00;23.20;99.90
60234;DHT22;49514;43.538;-5.708;2023-05-08T12:55:25;26.40;99.90
60234;DHT22;49514;43.538;-5.708;2023-05-08T13:07:46;30.90;99.90
60234;DHT22;49514;43.538;-5.708;2023-05-08T13:15:08;34.30;99.90
60234;DHT22;49514;43.538;-5.708;2023-05-08T13:20:02;35.00;97.80
60234;DHT22;49514;43.538;-5.708;2023-05-08T13:22:29;35.30;95.10
60234;DHT22;49514;43.538;-5.708;2023-05-08T13:24:55;35.80;91.20
60234;DHT22;49514;43.538;-5.708;2023-05-08T13:27:22;35.00;90.60
60234;DHT22;49514;43.538;-5.708;2023-05-08T13:29:48;35.40;91.60
60234;DHT22;49514;43.538;-5.708;2023-05-08T13:32:15;37.00;72.40
60234;DHT22;49514;43.538;-5.708;2023-05-08T13:34:41;36.50;69.80
60234;DHT22;49514;43.538;-5.708;2023-05-08T13:37:08;35.10;69.40
60234;DHT22;49514;43.538;-5.708;2023-05-08T13:39:35;33.90;72.00
60234;DHT22;49514;43.538;-5.708;2023-05-08T13:42:02;33.60;75.50
60234;DHT22;49514;43.538;-5.708;2023-05-08T13:44:29;34.00;71.70
60234;DHT22;49514;43.538;-5.708;2023-05-08T13:46:55;34.10;72.50
60234;DHT22;49514;43.538;-5.708;2023-05-08T13:49:22;34.00;72.30
60234;DHT22;49514;43.538;-5.708;2023-05-08T13:51:49;35.50;72.30
60234;DHT22;49514;43.538;-5.708;2023-05-08T13:54:16;34.90;67.80
60234;DHT22;49514;43.538;-5.708;2023-05-08T13:56:43;34.90;69.90
60234;DHT22;49514;43.538;-5.708;2023-05-08T13:59:09;35.30;67.90
60234;DHT22;49514;43.538;-5.708;2023-05-08T14:01:36;34.70;66.50
60234;DHT22;49514;43.538;-5.708;2023-05-08T14:04:02;34.20;68.30
60234;DHT22;49514;43.538;-5.708;2023-05-08T14:06:29;33.60;68.10
60234;DHT22;49514;43.538;-5.708;2023-05-08T14:08:55;33.90;70.10
60234;DHT22;49514;43.538;-5.708;2023-05-08T14:11:22;34.70;72.10
60234;DHT22;49514;43.538;-5.708;2023-05-08T14:13:48;37.80;70.10
60234;DHT22;49514;43.538;-5.708;2023-05-08T14:16:15;40.20;67.70
60234;DHT22;49514;43.538;-5.708;2023-05-08T14:18:42;41.20;65.00
60234;DHT22;49514;43.538;-5.708;2023-05-08T14:21:09;40.70;61.00
60234;DHT22;49514;43.538;-5.708;2023-05-08T14:23:35;40.10;62.00
60234;DHT22;49514;43.538;-5.708;2023-05-08T14:26:02;38.60;61.20
60234;DHT22;49514;43.538;-5.708;2023-05-08T14:28:29;37.20;63.60
60234;DHT22;49514;43.538;-5.708;2023-05-08T14:30:56;37.10;64.00
60234;DHT22;49514;43.538;-5.708;2023-05-08T14:33:22;37.10;63.70
60234;DHT22;49514;43.538;-5.708;2023-05-08T14:35:49;37.70;65.30
60234;DHT22;49514;43.538;-5.708;2023-05-08T14:38:15;38.00;62.60
60234;DHT22;49514;43.538;-5.708;2023-05-08T14:40:42;38.60;60.50
60234;DHT22;49514;43.538;-5.708;2023-05-08T14:43:08;39.90;61.80
60234;DHT22;49514;43.538;-5.708;2023-05-08T14:45:35;40.90;61.20
60234;DHT22;49514;43.538;-5.708;2023-05-08T14:48:02;40.50;60.10
60234;DHT22;49514;43.538;-5.708;2023-05-08T14:50:28;39.50;59.60
60234;DHT22;49514;43.538;-5.708;2023-05-08T14:52:55;38.80;60.00
60234;DHT22;49514;43.538;-5.708;2023-05-08T14:55:21;38.60;60.20
60234;DHT22;49514;43.538;-5.708;2023-05-08T14:57:48;38.60;59.80
60234;DHT22;49514;43.538;-5.708;2023-05-08T15:00:15;39.80;61.50
60234;DHT22;49514;43.538;-5.708;2023-05-08T15:02:42;41.30;58.90
60234;DHT22;49514;43.538;-5.708;2023-05-08T15:05:09;40.80;57.80
60234;DHT22;49514;43.538;-5.708;2023-05-08T15:07:36;40.30;58.50
60234;DHT22;49514;43.538;-5.708;2023-05-08T15:10:03;40.90;57.10
60234;DHT22;49514;43.538;-5.708;2023-05-08T15:12:30;41.60;56.50
60234;DHT22;49514;43.538;-5.708;2023-05-08T15:14:57;42.20;57.00
60234;DHT22;49514;43.538;-5.708;2023-05-08T15:17:24;42.00;56.00
60234;DHT22;49514;43.538;-5.708;2023-05-08T15:19:51;42.60;55.30
60234;DHT22;49514;43.538;-5.708;2023-05-08T15:22:17;41.60;55.30
60234;DHT22;49514;43.538;-5.708;2023-05-08T15:24:44;40.80;55.80
60234;DHT22;49514;43.538;-5.708;2023-05-08T15:27:11;40.20;56.20
60234;DHT22;49514;43.538;-5.708;2023-05-08T15:29:38;39.50;55.90
60234;DHT22;49514;43.538;-5.708;2023-05-08T15:32:05;39.00;56.90
60234;DHT22;49514;43.538;-5.708;2023-05-08T15:34:31;39.60;56.30
60234;DHT22;49514;43.538;-5.708;2023-05-08T15:36:58;39.50;56.00
60234;DHT22;49514;43.538;-5.708;2023-05-08T15:39:24;38.70;56.20
60234;DHT22;49514;43.538;-5.708;2023-05-08T15:41:50;39.10;56.70
60234;DHT22;49514;43.538;-5.708;2023-05-08T15:44:17;40.50;57.00
60234;DHT22;49514;43.538;-5.708;2023-05-08T15:46:44;41.10;55.20
60234;DHT22;49514;43.538;-5.708;2023-05-08T15:49:10;41.00;55.20
60234;DHT22;49514;43.538;-5.708;2023-05-08T15:51:37;40.60;55.20
60234;DHT22;49514;43.538;-5.708;2023-05-08T15:54:03;39.50;55.00
60234;DHT22;49514;43.538;-5.708;2023-05-08T15:56:30;40.30;55.10
60234;DHT22;49514;43.538;-5.708;2023-05-08T15:58:58;42.00;55.50
60234;DHT22;49514;43.538;-5.708;2023-05-08T16:01:24;42.80;54.40
60234;DHT22;49514;43.538;-5.708;2023-05-08T16:03:51;41.90;53.30
60234;DHT22;49514;43.538;-5.708;2023-05-08T16:06:17;41.40;53.50
60234;DHT22;49514;43.538;-5.708;2023-05-08T16:08:44;39.90;58.30
60234;DHT22;49514;43.538;-5.708;2023-05-08T16:11:10;38.60;54.30
60234;DHT22;49514;43.538;-5.708;2023-05-08T16:13:37;37.00;59.40
60234;DHT22;49514;43.538;-5.708;2023-05-08T16:16:04;35.90;59.30
60234;DHT22;49514;43.538;-5.708;2023-05-08T16:18:31;34.70;59.90
60234;DHT22;49514;43.538;-5.708;2023-05-08T16:20:58;33.80;61.00
60234;DHT22;49514;43.538;-5.708;2023-05-08T16:23:25;33.60;61.70
60234;DHT22;49514;43.538;-5.708;2023-05-08T16:25:52;34.70;61.80
60234;DHT22;49514;43.538;-5.708;2023-05-08T16:28:18;35.60;60.40
60234;DHT22;49514;43.538;-5.708;2023-05-08T16:30:44;37.60;59.40
60234;DHT22;49514;43.538;-5.708;2023-05-08T16:33:11;40.10;57.90
60234;DHT22;49514;43.538;-5.708;2023-05-08T16:35:38;40.90;55.00
60234;DHT22;49514;43.538;-5.708;2023-05-08T16:38:05;40.60;54.70
60234;DHT22;49514;43.538;-5.708;2023-05-08T16:40:32;39.20;55.00
60234;DHT22;49514;43.538;-5.708;2023-05-08T16:42:58;38.50;55.50
60234;DHT22;49514;43.538;-5.708;2023-05-08T16:45:25;39.00;55.90
60234;DHT22;49514;43.538;-5.708;2023-05-08T16:47:51;39.40;55.30
60234;DHT22;49514;43.538;-5.708;2023-05-08T16:50:18;39.70;55.30
60234;DHT22;49514;43.538;-5.708;2023-05-08T16:52:44;39.10;53.00
60234;DHT22;49514;43.538;-5.708;2023-05-08T16:55:11;38.90;53.70
60234;DHT22;49514;43.538;-5.708;2023-05-08T16:57:37;37.70;53.20
60234;DHT22;49514;43.538;-5.708;2023-05-08T17:00:04;38.20;54.50
60234;DHT22;49514;43.538;-5.708;2023-05-08T17:02:30;38.90;54.80
60234;DHT22;49514;43.538;-5.708;2023-05-08T17:04:57;39.00;54.50
60234;DHT22;49514;43.538;-5.708;2023-05-08T17:07:23;40.20;53.70
60234;DHT22;49514;43.538;-5.708;2023-05-08T17:09:54;40.70;53.00
60234;DHT22;49514;43.538;-5.708;2023-05-08T17:12:20;41.30;53.60
60234;DHT22;49514;43.538;-5.708;2023-05-08T17:14:46;41.50;52.70
60234;DHT22;49514;43.538;-5.708;2023-05-08T17:17:13;40.50;53.30
60234;DHT22;49514;43.538;-5.708;2023-05-08T17:19:39;39.60;53.90
60234;DHT22;49514;43.538;-5.708;2023-05-08T17:22:08;38.00;54.60
60234;DHT22;49514;43.538;-5.708;2023-05-08T17:24:34;36.40;55.90
60234;DHT22;49514;43.538;-5.708;2023-05-08T17:27:05;34.80;56.80
60234;DHT22;49514;43.538;-5.708;2023-05-08T17:29:32;33.20;59.40
60234;DHT22;49514;43.538;-5.708;2023-05-08T17:31:59;32.20;60.70
60234;DHT22;49514;43.538;-5.708;2023-05-08T17:34:26;32.10;61.40
60234;DHT22;49514;43.538;-5.708;2023-05-08T17:36:52;31.70;62.50
60234;DHT22;49514;43.538;-5.708;2023-05-08T17:39:19;31.90;61.90
60234;DHT22;49514;43.538;-5.708;2023-05-08T17:41:47;31.70;61.70
60234;DHT22;49514;43.538;-5.708;2023-05-08T17:44:14;31.80;62.30
60234;DHT22;49514;43.538;-5.708;2023-05-08T17:46:41;32.60;62.60
60234;DHT22;49514;43.538;-5.708;2023-05-08T17:49:07;33.30;61.90
60234;DHT22;49514;43.538;-5.708;2023-05-08T17:51:34;34.60;61.20
60234;DHT22;49514;43.538;-5.708;2023-05-08T17:54:00;36.30;60.60
60234;DHT22;49514;43.538;-5.708;2023-05-08T17:56:26;36.90;58.70
60234;DHT22;49514;43.538;-5.708;2023-05-08T17:58:53;37.00;58.10
60234;DHT22;49514;43.538;-5.708;2023-05-08T18:01:20;36.10;58.20
60234;DHT22;49514;43.538;-5.708;2023-05-08T18:03:47;35.00;58.10
60234;DHT22;49514;43.538;-5.708;2023-05-08T18:06:14;34.20;58.40
60234;DHT22;49514;43.538;-5.708;2023-05-08T18:08:40;34.10;59.00
60234;DHT22;49514;43.538;-5.708;2023-05-08T18:11:14;34.60;59.00
60234;DHT22;49514;43.538;-5.708;2023-05-08T18:13:40;34.90;58.70
60234;DHT22;49514;43.538;-5.708;2023-05-08T18:16:07;35.40;57.60
60234;DHT22;49514;43.538;-5.708;2023-05-08T18:18:33;35.60;56.70
60234;DHT22;49514;43.538;-5.708;2023-05-08T18:21:00;35.60;57.20
60234;DHT22;49514;43.538;-5.708;2023-05-08T18:23:27;35.90;57.40
60234;DHT22;49514;43.538;-5.708;2023-05-08T18:25:53;35.80;57.70
60234;DHT22;49514;43.538;-5.708;2023-05-08T18:28:20;35.90;57.80
60234;DHT22;49514;43.538;-5.708;2023-05-08T18:30:46;36.00;57.30
60234;DHT22;49514;43.538;-5.708;2023-05-08T18:33:13;36.40;56.70
60234;DHT22;49514;43.538;-5.708;2023-05-08T18:35:40;36.40;56.90
60234;DHT22;49514;43.538;-5.708;2023-05-08T18:38:06;35.50;56.20
60234;DHT22;49514;43.538;-5.708;2023-05-08T18:40:33;34.50;57.00
60234;DHT22;49514;43.538;-5.708;2023-05-08T18:43:00;34.10;59.20
60234;DHT22;49514;43.538;-5.708;2023-05-08T18:45:26;34.20;59.20
60234;DHT22;49514;43.538;-5.708;2023-05-08T18:47:54;33.50;59.10
60234;DHT22;49514;43.538;-5.708;2023-05-08T18:50:23;32.50;59.90
60234;DHT22;49514;43.538;-5.708;2023-05-08T18:52:50;31.50;61.50
60234;DHT22;49514;43.538;-5.708;2023-05-08T18:55:16;30.50;63.10
60234;DHT22;49514;43.538;-5.708;2023-05-08T18:57:43;29.60;65.30
60234;DHT22;49514;43.538;-5.708;2023-05-08T19:00:10;28.90;65.30
60234;DHT22;49514;43.538;-5.708;2023-05-08T19:02:36;28.30;66.60
60234;DHT22;49514;43.538;-5.708;2023-05-08T19:05:03;27.80;67.20
60234;DHT22;49514;43.538;-5.708;2023-05-08T19:07:30;27.40;69.00
60234;DHT22;49514;43.538;-5.708;2023-05-08T19:09:57;26.90;69.40
60234;DHT22;49514;43.538;-5.708;2023-05-08T19:12:24;26.60;70.10
60234;DHT22;49514;43.538;-5.708;2023-05-08T19:14:50;26.30;71.70
60234;DHT22;49514;43.538;-5.708;2023-05-08T19:17:19;25.90;73.70
60234;DHT22;49514;43.538;-5.708;2023-05-08T19:19:48;25.50;75.90
60234;DHT22;49514;43.538;-5.708;2023-05-08T19:22:18;25.30;76.70
60234;DHT22;49514;43.538;-5.708;2023-05-08T19:24:44;25.00;78.90
60234;DHT22;49514;43.538;-5.708;2023-05-08T19:27:11;24.80;81.20
60234;DHT22;49514;43.538;-5.708;2023-05-08T19:29:38;24.50;82.30
60234;DHT22;49514;43.538;-5.708;2023-05-08T19:32:04;24.30;83.10
60234;DHT22;49514;43.538;-5.708;2023-05-08T19:34:31;24.10;86.30
60234;DHT22;49514;43.538;-5.708;2023-05-08T19:37:00;23.90;87.40
60234;DHT22;49514;43.538;-5.708;2023-05-08T19:39:27;23.50;87.00
60234;DHT22;49514;43.538;-5.708;2023-05-08T19:41:53;23.30;89.50
60234;DHT22;49514;43.538;-5.708;2023-05-08T19:44:20;23.10;91.30
60234;DHT22;49514;43.538;-5.708;2023-05-08T19:46:49;22.90;91.50
60234;DHT22;49514;43.538;-5.708;2023-05-08T19:49:16;22.70;92.40
60234;DHT22;49514;43.538;-5.708;2023-05-08T19:51:43;22.60;91.80
60234;DHT22;49514;43.538;-5.708;2023-05-08T19:54:09;22.50;91.90
60234;DHT22;49514;43.538;-5.708;2023-05-08T19:56:36;22.40;92.20
60234;DHT22;49514;43.538;-5.708;2023-05-08T19:59:04;22.40;92.60
60234;DHT22;49514;43.538;-5.708;2023-05-08T20:01:31;22.30;92.90
60234;DHT22;49514;43.538;-5.708;2023-05-08T20:03:57;22.20;94.60
60234;DHT22;49514;43.538;-5.708;2023-05-08T20:06:24;22.10;95.20